Time;durP1;ratioP1;P1;durP2;ratioP2;P2;SDS_P1;SDS_P2;PMS_P1;PMS_P2;Temp;Humidity;BMP_temperature;BMP_pressure;BME280_temperature;BME280_humidity;BME280_pressure;Samples;Min_cycle;Max_cycle;Signal;HPM_P1;HPM_P2
2022/12/30 00:01:01;;;;;;;0.00;0.00;;;;;;;;;;5076471;28;20211;-77
2022/12/30 00:03:29;;;;;;;0.00;0.00;;;;;;;;;;5075873;28;20198;-78
2022/12/30 00:05:58;;;;;;;0.00;0.00;;;;;;;;;;5075334;28;20225;-78
2022/12/30 00:11:21;;;;;;;0.00;0.00;;;;;;;;;;5042894;28;20201;-77
2022/12/30 00:33:38;;;;;;;0.00;0.00;;;;;;;;;;5074466;28;20708;-80
2022/12/30 00:36:07;;;;;;;0.00;0.00;;;;;;;;;;5074359;28;20283;-80
2022/12/30 00:38:36;;;;;;;0.00;0.00;;;;;;;;;;5074321;28;20203;-81
2022/12/30 00:43:50;;;;;;;0.00;0.00;;;;;;;;;;5073872;28;20182;-80
2022/12/30 00:46:20;;;;;;;0.00;0.00;;;;;;;;;;5074056;28;20272;-80
2022/12/30 00:57:07;;;;;;;0.00;0.00;;;;;;;;;;5073592;28;20226;-81
2022/12/30 00:59:36;;;;;;;0.00;0.00;;;;;;;;;;5073808;28;20602;-80
2022/12/30 01:02:04;;;;;;;0.00;0.00;;;;;;;;;;5073372;28;20583;-80
2022/12/30 01:04:38;;;;;;;0.00;0.00;;;;;;;;;;5073763;28;20232;-80
2022/12/30 01:07:06;;;;;;;0.00;0.00;;;;;;;;;;5073352;28;20264;-80
2022/12/30 01:09:35;;;;;;;0.00;0.00;;;;;;;;;;5073765;28;20224;-80
2022/12/30 01:12:10;;;;;;;0.00;0.00;;;;;;;;;;5075824;28;20280;-80
2022/12/30 01:14:39;;;;;;;0.00;0.00;;;;;;;;;;5093988;28;20185;-80
2022/12/30 01:17:08;;;;;;;0.00;0.00;;;;;;;;;;5093510;28;20217;-80
2022/12/30 01:19:38;;;;;;;0.00;0.00;;;;;;;;;;5093785;28;20198;-80
2022/12/30 01:22:07;;;;;;;0.00;0.00;;;;;;;;;;5093826;28;20202;-79
2022/12/30 01:24:35;;;;;;;0.00;0.00;;;;;;;;;;5093758;28;20719;-79
2022/12/30 01:27:04;;;;;;;0.00;0.00;;;;;;;;;;5093658;28;20641;-80
2022/12/30 01:29:34;;;;;;;0.00;0.00;;;;;;;;;;5094015;28;20687;-79
2022/12/30 01:32:03;;;;;;;0.00;0.00;;;;;;;;;;5093706;28;20206;-79
2022/12/30 01:34:31;;;;;;;0.00;0.00;;;;;;;;;;5093699;28;20637;-80
2022/12/30 01:37:01;;;;;;;0.00;0.00;;;;;;;;;;5093414;28;20225;-80
2022/12/30 01:39:29;;;;;;;0.00;0.00;;;;;;;;;;5090801;28;20245;-79
2022/12/30 01:41:58;;;;;;;0.00;0.00;;;;;;;;;;5073398;28;20259;-79
2022/12/30 01:44:44;;;;;;;0.00;0.00;;;;;;;;;;5073479;28;20213;-79
2022/12/30 01:47:14;;;;;;;0.00;0.00;;;;;;;;;;5073509;28;20222;-80
2022/12/30 01:49:44;;;;;;;0.00;0.00;;;;;;;;;;5073587;28;20203;-79
2022/12/30 01:52:15;;;;;;;0.00;0.00;;;;;;;;;;5073324;28;20206;-80
2022/12/30 01:54:44;;;;;;;0.00;0.00;;;;;;;;;;5073092;28;20293;-80
2022/12/30 01:57:13;;;;;;;0.00;0.00;;;;;;;;;;5073361;28;20687;-79
2022/12/30 01:59:41;;;;;;;0.00;0.00;;;;;;;;;;5073103;28;20206;-80
2022/12/30 02:02:09;;;;;;;0.00;0.00;;;;;;;;;;5073047;28;20644;-80
2022/12/30 02:04:38;;;;;;;0.00;0.00;;;;;;;;;;5073574;28;20194;-80
2022/12/30 02:07:09;;;;;;;0.00;0.00;;;;;;;;;;5073134;28;20219;-81
2022/12/30 02:09:39;;;;;;;0.00;0.00;;;;;;;;;;5086397;28;20201;-79
2022/12/30 02:12:08;;;;;;;0.00;0.00;;;;;;;;;;5090429;28;20631;-79
2022/12/30 02:14:38;;;;;;;0.00;0.00;;;;;;;;;;5074119;28;20248;-79
2022/12/30 02:17:10;;;;;;;0.00;0.00;;;;;;;;;;5076773;28;20262;-79
2022/12/30 02:20:09;;;;;;;0.00;0.00;;;;;;;;;;5076814;28;20210;-80
2022/12/30 02:22:50;;;;;;;0.00;0.00;;;;;;;;;;5076970;28;20191;-80
2022/12/30 02:25:34;;;;;;;0.00;0.00;;;;;;;;;;5095608;28;20719;-79
2022/12/30 02:28:21;;;;;;;0.00;0.00;;;;;;;;;;5096720;28;20237;-80
2022/12/30 02:30:56;;;;;;;0.00;0.00;;;;;;;;;;5095199;28;20267;-79
2022/12/30 02:33:28;;;;;;;0.00;0.00;;;;;;;;;;5076773;28;20536;-80
2022/12/30 02:36:01;;;;;;;0.00;0.00;;;;;;;;;;5076604;28;20222;-80
2022/12/30 02:38:33;;;;;;;0.00;0.00;;;;;;;;;;5076282;28;20232;-80
2022/12/30 02:46:39;;;;;;;0.00;0.00;;;;;;;;;;5076072;28;20344;-80
2022/12/30 02:49:09;;;;;;;0.00;0.00;;;;;;;;;;5076526;28;20210;-80
2022/12/30 02:54:24;;;;;;;0.00;0.00;;;;;;;;;;5076134;28;20194;-80
2022/12/30 02:56:53;;;;;;;0.00;0.00;;;;;;;;;;5076011;28;20222;-80
2022/12/30 03:05:07;;;;;;;0.00;0.00;;;;;;;;;;5075998;28;20210;-80
2022/12/30 03:07:38;;;;;;;0.00;0.00;;;;;;;;;;5076364;28;20595;-80
2022/12/30 03:13:00;;;;;;;0.00;0.00;;;;;;;;;;5075743;28;20187;-80
2022/12/30 03:15:31;;;;;;;0.00;0.00;;;;;;;;;;5075643;28;20213;-80
2022/12/30 03:18:03;;;;;;;0.00;0.00;;;;;;;;;;5075994;28;20257;-79
2022/12/30 03:20:32;;;;;;;0.00;0.00;;;;;;;;;;5076112;28;20556;-80
2022/12/30 03:28:36;;;;;;;0.00;0.00;;;;;;;;;;5075918;28;20244;-80
2022/12/30 03:31:07;;;;;;;0.00;0.00;;;;;;;;;;5075579;28;20316;-80
2022/12/30 03:33:38;;;;;;;0.00;0.00;;;;;;;;;;5075692;28;20194;-80
2022/12/30 03:36:10;;;;;;;0.00;0.00;;;;;;;;;;5075201;28;20244;-79
2022/12/30 03:38:40;;;;;;;0.00;0.00;;;;;;;;;;5075602;28;20211;-79
2022/12/30 03:41:09;;;;;;;0.00;0.00;;;;;;;;;;5075962;28;20263;-79
2022/12/30 03:43:38;;;;;;;0.00;0.00;;;;;;;;;;5075170;28;20210;-80
2022/12/30 03:46:07;;;;;;;0.00;0.00;;;;;;;;;;5075244;28;20232;-79
2022/12/30 03:48:37;;;;;;;0.00;0.00;;;;;;;;;;5075138;28;20203;-79
2022/12/30 03:51:06;;;;;;;0.00;0.00;;;;;;;;;;5078764;28;20201;-80
2022/12/30 03:53:34;;;;;;;0.00;0.00;;;;;;;;;;5095103;28;20206;-79
2022/12/30 03:56:02;;;;;;;0.00;0.00;;;;;;;;;;5095443;28;20278;-79
2022/12/30 03:58:31;;;;;;;0.00;0.00;;;;;;;;;;5095108;28;20712;-80
2022/12/30 04:00:59;;;;;;;0.00;0.00;;;;;;;;;;5095658;28;20206;-79
2022/12/30 04:03:28;;;;;;;0.00;0.00;;;;;;;;;;5095203;28;20209;-79
2022/12/30 04:05:58;;;;;;;0.00;0.00;;;;;;;;;;5095040;28;20267;-79
2022/12/30 04:08:26;;;;;;;0.00;0.00;;;;;;;;;;5095128;28;20712;-80
2022/12/30 04:10:54;;;;;;;0.00;0.00;;;;;;;;;;5094724;28;20228;-80
2022/12/30 04:13:23;;;;;;;0.00;0.00;;;;;;;;;;5095029;28;20198;-80
2022/12/30 04:15:52;;;;;;;0.00;0.00;;;;;;;;;;5083348;28;20226;-80
2022/12/30 04:18:21;;;;;;;0.00;0.00;;;;;;;;;;5074328;28;20215;-80
2022/12/30 04:20:50;;;;;;;0.00;0.00;;;;;;;;;;5074708;28;20686;-79
2022/12/30 04:23:20;;;;;;;0.00;0.00;;;;;;;;;;5074272;28;20240;-81
2022/12/30 04:25:48;;;;;;;0.00;0.00;;;;;;;;;;5074383;28;20218;-79
2022/12/30 04:28:17;;;;;;;0.00;0.00;;;;;;;;;;5074339;28;20252;-79
2022/12/30 04:30:45;;;;;;;0.00;0.00;;;;;;;;;;5074367;28;20206;-80
2022/12/30 04:33:13;;;;;;;0.00;0.00;;;;;;;;;;5073974;28;20232;-79
2022/12/30 04:35:42;;;;;;;0.00;0.00;;;;;;;;;;5074388;28;20299;-79
2022/12/30 04:38:10;;;;;;;0.00;0.00;;;;;;;;;;5073160;28;20222;-80
2022/12/30 04:40:40;;;;;;;0.00;0.00;;;;;;;;;;5074145;28;20733;-80
2022/12/30 04:43:08;;;;;;;0.00;0.00;;;;;;;;;;5073918;28;20206;-80
2022/12/30 04:45:37;;;;;;;0.00;0.00;;;;;;;;;;5073737;28;20237;-80
2022/12/30 04:48:06;;;;;;;0.00;0.00;;;;;;;;;;5074017;28;20202;-80
2022/12/30 04:50:34;;;;;;;0.00;0.00;;;;;;;;;;5073897;28;20248;-79
2022/12/30 04:53:02;;;;;;;0.00;0.00;;;;;;;;;;5074161;28;20780;-80
2022/12/30 04:55:31;;;;;;;0.00;0.00;;;;;;;;;;5073954;28;20612;-80
2022/12/30 04:58:01;;;;;;;0.00;0.00;;;;;;;;;;5073892;28;20262;-80
2022/12/30 05:00:29;;;;;;;0.00;0.00;;;;;;;;;;5073732;28;20244;-79
2022/12/30 05:02:58;;;;;;;0.00;0.00;;;;;;;;;;5074011;28;20206;-79
2022/12/30 05:05:26;;;;;;;0.00;0.00;;;;;;;;;;5073850;28;20198;-79
2022/12/30 05:07:55;;;;;;;0.00;0.00;;;;;;;;;;5074129;28;20541;-80
2022/12/30 05:10:24;;;;;;;0.00;0.00;;;;;;;;;;5073841;28;20202;-80
2022/12/30 05:12:52;;;;;;;0.00;0.00;;;;;;;;;;5073792;28;20202;-79
2022/12/30 05:15:22;;;;;;;0.00;0.00;;;;;;;;;;5074421;28;20233;-79
2022/12/30 05:17:50;;;;;;;0.00;0.00;;;;;;;;;;5073301;28;20272;-79
2022/12/30 05:20:19;;;;;;;0.00;0.00;;;;;;;;;;5073401;28;20206;-79
2022/12/30 05:22:47;;;;;;;0.00;0.00;;;;;;;;;;5073470;28;20207;-79
2022/12/30 05:28:02;;;;;;;0.00;0.00;;;;;;;;;;5073665;28;20596;-79
2022/12/30 05:30:32;;;;;;;0.00;0.00;;;;;;;;;;5073547;28;20336;-79
2022/12/30 05:33:00;;;;;;;0.00;0.00;;;;;;;;;;5073569;28;20206;-80
2022/12/30 05:35:29;;;;;;;0.00;0.00;;;;;;;;;;5073518;28;20198;-80
2022/12/30 05:37:57;;;;;;;0.00;0.00;;;;;;;;;;5073061;28;20268;-79
2022/12/30 05:40:25;;;;;;;0.00;0.00;;;;;;;;;;5073365;28;20671;-80
2022/12/30 05:42:54;;;;;;;0.03;0.03;;;;;;;;;;5073322;28;20279;-80
2022/12/30 05:45:22;;;;;;;0.00;0.00;;;;;;;;;;5073593;28;20207;-80
2022/12/30 05:47:52;;;;;;;0.00;0.00;;;;;;;;;;5073490;28;20252;-80
2022/12/30 05:50:20;;;;;;;0.00;0.00;;;;;;;;;;5080056;28;20232;-79
2022/12/30 05:52:49;;;;;;;0.00;0.00;;;;;;;;;;5079945;28;20232;-80
2022/12/30 05:55:17;;;;;;;0.00;0.00;;;;;;;;;;5079978;28;20202;-79
2022/12/30 05:57:46;;;;;;;0.00;0.00;;;;;;;;;;5079911;28;20230;-80
2022/12/30 06:00:15;;;;;;;0.00;0.00;;;;;;;;;;5079718;28;20240;-80
2022/12/30 06:02:43;;;;;;;0.00;0.00;;;;;;;;;;5079939;28;20202;-80
2022/12/30 06:05:13;;;;;;;0.00;0.00;;;;;;;;;;5079924;28;20206;-79
2022/12/30 06:07:42;;;;;;;0.00;0.00;;;;;;;;;;5079524;28;20226;-79
2022/12/30 06:10:10;;;;;;;0.00;0.00;;;;;;;;;;5079374;28;20206;-80
2022/12/30 06:12:38;;;;;;;0.00;0.00;;;;;;;;;;5079693;28;20218;-79
2022/12/30 06:15:07;;;;;;;0.00;0.00;;;;;;;;;;5079564;28;20252;-80
2022/12/30 06:17:36;;;;;;;0.00;0.00;;;;;;;;;;5079670;28;20222;-80
2022/12/30 06:20:05;;;;;;;0.00;0.00;;;;;;;;;;5079808;28;20720;-80
2022/12/30 06:22:35;;;;;;;0.00;0.00;;;;;;;;;;5079235;28;20694;-79
2022/12/30 06:25:03;;;;;;;0.00;0.00;;;;;;;;;;5080245;28;20194;-80
2022/12/30 06:27:32;;;;;;;0.00;0.00;;;;;;;;;;5078979;28;20279;-80
2022/12/30 06:30:00;;;;;;;0.00;0.00;;;;;;;;;;5079525;28;20206;-80
2022/12/30 06:32:29;;;;;;;0.00;0.00;;;;;;;;;;5079504;28;20209;-80
2022/12/30 06:34:57;;;;;;;0.00;0.00;;;;;;;;;;5079254;28;20206;-80
2022/12/30 06:37:25;;;;;;;0.00;0.00;;;;;;;;;;5079357;28;20226;-80
2022/12/30 06:39:55;;;;;;;0.00;0.00;;;;;;;;;;5079223;28;20222;-80
2022/12/30 06:42:24;;;;;;;0.00;0.00;;;;;;;;;;5079132;28;20210;-79
2022/12/30 06:44:52;;;;;;;0.00;0.00;;;;;;;;;;5079306;28;20206;-80
2022/12/30 06:47:20;;;;;;;0.00;0.00;;;;;;;;;;5079466;28;20222;-80
2022/12/30 06:49:49;;;;;;;0.00;0.00;;;;;;;;;;5079595;28;20198;-80
2022/12/30 06:52:17;;;;;;;0.00;0.00;;;;;;;;;;5080071;28;20202;-79
2022/12/30 06:54:46;;;;;;;0.00;0.00;;;;;;;;;;5079491;28;20241;-79
2022/12/30 06:57:15;;;;;;;0.00;0.00;;;;;;;;;;5079580;28;20695;-80
2022/12/30 06:59:44;;;;;;;0.00;0.00;;;;;;;;;;5078485;28;20222;-79
2022/12/30 07:02:12;;;;;;;0.00;0.00;;;;;;;;;;5076527;28;20221;-79
2022/12/30 07:04:41;;;;;;;0.00;0.00;;;;;;;;;;5076487;28;20256;-78
2022/12/30 07:07:09;;;;;;;0.03;0.03;;;;;;;;;;5076344;28;20222;-79
2022/12/30 07:09:38;;;;;;;0.00;0.00;;;;;;;;;;5076146;28;20244;-79
2022/12/30 07:12:06;;;;;;;0.00;0.00;;;;;;;;;;5076441;28;20203;-79
2022/12/30 07:14:36;;;;;;;0.00;0.00;;;;;;;;;;5076625;28;20202;-79
2022/12/30 07:17:05;;;;;;;0.00;0.00;;;;;;;;;;5084214;28;20264;-78
2022/12/30 07:19:33;;;;;;;0.00;0.00;;;;;;;;;;5091114;28;20227;-78
2022/12/30 07:22:01;;;;;;;0.00;0.00;;;;;;;;;;5076936;28;20206;-79
2022/12/30 07:24:30;;;;;;;0.07;0.07;;;;;;;;;;5076888;28;20229;-79
2022/12/30 07:26:58;;;;;;;0.00;0.00;;;;;;;;;;5076646;28;20260;-79
2022/12/30 07:29:27;;;;;;;0.00;0.00;;;;;;;;;;5076401;28;20202;-78
2022/12/30 07:31:57;;;;;;;0.00;0.00;;;;;;;;;;5076275;28;20202;-78
2022/12/30 07:34:25;;;;;;;0.00;0.00;;;;;;;;;;5076628;28;20206;-78
2022/12/30 07:36:54;;;;;;;0.00;0.00;;;;;;;;;;5079404;28;20217;-78
2022/12/30 07:39:22;;;;;;;0.00;0.00;;;;;;;;;;5089332;28;20257;-80
2022/12/30 07:41:50;;;;;;;0.00;0.00;;;;;;;;;;5075413;28;20214;-79
2022/12/30 07:44:19;;;;;;;0.00;0.00;;;;;;;;;;5075514;28;20569;-79
2022/12/30 07:46:47;;;;;;;0.00;0.00;;;;;;;;;;5075222;28;20230;-79
2022/12/30 07:49:17;;;;;;;0.00;0.00;;;;;;;;;;5075767;28;20199;-79
2022/12/30 07:51:46;;;;;;;0.00;0.00;;;;;;;;;;5075242;28;20264;-79
2022/12/30 07:54:14;;;;;;;0.00;0.00;;;;;;;;;;5075361;28;20203;-79
2022/12/30 07:56:43;;;;;;;0.00;0.00;;;;;;;;;;5076524;28;20226;-79
2022/12/30 07:59:12;;;;;;;0.00;0.00;;;;;;;;;;5095058;28;20222;-79
2022/12/30 08:01:41;;;;;;;0.00;0.00;;;;;;;;;;5095440;28;20307;-79
2022/12/30 08:04:09;;;;;;;0.00;0.00;;;;;;;;;;5095543;28;20208;-79
2022/12/30 08:06:59;;;;;;;0.00;0.00;;;;;;;;;;5082446;28;20223;-79
2022/12/30 08:09:28;;;;;;;0.00;0.00;;;;;;;;;;5075474;28;20202;-79
2022/12/30 08:11:56;;;;;;;0.00;0.00;;;;;;;;;;5074122;28;20199;-79
2022/12/30 08:14:24;;;;;;;0.00;0.00;;;;;;;;;;5075220;28;20233;-79
2022/12/30 08:16:53;;;;;;;0.00;0.00;;;;;;;;;;5075192;28;20294;-79
2022/12/30 08:19:21;;;;;;;0.00;0.00;;;;;;;;;;5074634;28;20219;-80
2022/12/30 08:21:50;;;;;;;0.00;0.00;;;;;;;;;;5074960;28;20202;-80
2022/12/30 08:24:19;;;;;;;0.00;0.00;;;;;;;;;;5074416;28;20263;-80
2022/12/30 08:26:48;;;;;;;0.00;0.00;;;;;;;;;;5074762;28;20222;-80
2022/12/30 08:29:16;;;;;;;0.00;0.00;;;;;;;;;;5074842;28;20237;-79
2022/12/30 08:31:49;;;;;;;0.00;0.00;;;;;;;;;;5074732;28;20207;-79
2022/12/30 08:34:18;;;;;;;0.00;0.00;;;;;;;;;;5077178;28;20201;-80
2022/12/30 08:36:47;;;;;;;0.00;0.00;;;;;;;;;;5094770;28;20221;-79
2022/12/30 08:39:15;;;;;;;0.00;0.00;;;;;;;;;;5094845;28;20218;-79
2022/12/30 08:41:46;;;;;;;0.00;0.00;;;;;;;;;;5094346;28;20249;-79
2022/12/30 08:44:23;;;;;;;0.00;0.00;;;;;;;;;;5094646;28;20635;-80
2022/12/30 08:46:52;;;;;;;0.00;0.00;;;;;;;;;;5094462;28;20275;-80
2022/12/30 08:49:20;;;;;;;0.00;0.00;;;;;;;;;;5091038;28;20201;-80
2022/12/30 08:51:49;;;;;;;0.00;0.00;;;;;;;;;;5094405;28;20586;-80
2022/12/30 08:54:18;;;;;;;0.00;0.00;;;;;;;;;;5094473;28;20209;-80
2022/12/30 08:56:48;;;;;;;0.00;0.00;;;;;;;;;;5094003;28;20256;-79
2022/12/30 08:59:17;;;;;;;0.00;0.00;;;;;;;;;;5094341;28;20243;-79
2022/12/30 09:01:45;;;;;;;0.00;0.00;;;;;;;;;;5094221;28;20659;-79
2022/12/30 09:04:14;;;;;;;0.00;0.00;;;;;;;;;;5094292;28;20209;-79
2022/12/30 09:06:43;;;;;;;0.00;0.00;;;;;;;;;;5094120;28;20271;-80
2022/12/30 09:09:13;;;;;;;0.00;0.00;;;;;;;;;;5093929;28;20198;-80
2022/12/30 09:11:42;;;;;;;0.00;0.00;;;;;;;;;;5094186;28;20655;-79
2022/12/30 09:14:13;;;;;;;0.00;0.00;;;;;;;;;;5094146;28;20206;-80
2022/12/30 09:16:41;;;;;;;0.00;0.00;;;;;;;;;;5093884;28;20222;-79
2022/12/30 09:19:10;;;;;;;0.00;0.00;;;;;;;;;;5093844;28;20205;-80
2022/12/30 09:21:48;;;;;;;0.00;0.00;;;;;;;;;;5093818;28;20186;-79
2022/12/30 09:24:16;;;;;;;0.00;0.00;;;;;;;;;;5093458;28;20209;-79
2022/12/30 09:26:45;;;;;;;0.00;0.00;;;;;;;;;;5094406;28;20569;-79
2022/12/30 09:29:17;;;;;;;0.00;0.00;;;;;;;;;;5094182;28;20201;-80
2022/12/30 09:31:46;;;;;;;0.00;0.00;;;;;;;;;;5094199;28;20532;-80
2022/12/30 09:34:15;;;;;;;0.00;0.00;;;;;;;;;;5094120;28;20225;-80
2022/12/30 09:36:43;;;;;;;0.00;0.00;;;;;;;;;;5079683;28;20257;-79
2022/12/30 09:39:13;;;;;;;0.00;0.00;;;;;;;;;;5074514;28;20256;-80
2022/12/30 09:44:38;;;;;;;0.00;0.00;;;;;;;;;;5094827;28;20190;-79
2022/12/30 09:47:10;;;;;;;0.00;0.00;;;;;;;;;;5094145;28;20594;-79
2022/12/30 09:49:41;;;;;;;0.00;0.00;;;;;;;;;;5094651;28;20235;-79
2022/12/30 09:52:13;;;;;;;0.00;0.00;;;;;;;;;;5095011;28;20194;-79
2022/12/30 09:54:44;;;;;;;0.00;0.00;;;;;;;;;;5079546;28;20240;-79
2022/12/30 10:00:07;;;;;;;0.00;0.00;;;;;;;;;;5070434;28;20234;-78
2022/12/30 10:02:44;;;;;;;0.00;0.00;;;;;;;;;;5074364;28;20187;-79
2022/12/30 10:05:13;;;;;;;0.00;0.00;;;;;;;;;;5074024;28;20284;-79
2022/12/30 10:07:47;;;;;;;0.00;0.00;;;;;;;;;;5073986;28;20226;-79
2022/12/30 10:10:19;;;;;;;0.00;0.00;;;;;;;;;;5073668;28;20538;-79
2022/12/30 10:12:52;;;;;;;0.00;0.00;;;;;;;;;;5079874;28;20263;-79
2022/12/30 10:15:29;;;;;;;0.00;0.00;;;;;;;;;;5086732;28;20629;-79
2022/12/30 10:18:03;;;;;;;0.00;0.00;;;;;;;;;;5073411;28;20205;-79
2022/12/30 10:20:46;;;;;;;0.00;0.00;;;;;;;;;;5073625;28;20260;-79
2022/12/30 10:23:19;;;;;;;0.00;0.00;;;;;;;;;;5073787;28;20187;-79
2022/12/30 10:28:47;;;;;;;0.00;0.00;;;;;;;;;;5073056;28;20198;-79
2022/12/30 10:31:19;;;;;;;0.00;0.00;;;;;;;;;;5073121;28;20186;-78
2022/12/30 10:33:49;;;;;;;0.00;0.00;;;;;;;;;;5073595;28;20627;-79
2022/12/30 10:36:19;;;;;;;0.00;0.00;;;;;;;;;;5075660;28;20272;-79
2022/12/30 10:38:47;;;;;;;0.00;0.00;;;;;;;;;;5091821;28;20210;-79
2022/12/30 10:41:29;;;;;;;0.00;0.00;;;;;;;;;;5097260;28;20284;-79
2022/12/30 10:44:12;;;;;;;0.00;0.00;;;;;;;;;;5097419;28;20528;-79
2022/12/30 10:46:50;;;;;;;0.00;0.00;;;;;;;;;;5097332;28;20602;-79
2022/12/30 10:49:28;;;;;;;0.00;0.00;;;;;;;;;;5097139;28;20190;-80
2022/12/30 10:51:57;;;;;;;0.00;0.00;;;;;;;;;;5096855;28;20213;-80
2022/12/30 10:54:26;;;;;;;0.00;0.00;;;;;;;;;;5096861;28;20205;-80
2022/12/30 10:56:54;;;;;;;0.00;0.00;;;;;;;;;;5083834;28;20288;-79
2022/12/30 10:59:24;;;;;;;0.00;0.00;;;;;;;;;;5076519;28;20202;-78
2022/12/30 11:02:00;;;;;;;0.00;0.00;;;;;;;;;;5076506;28;20261;-79
2022/12/30 11:04:39;;;;;;;0.00;0.00;;;;;;;;;;5077007;28;20190;-78
2022/12/30 11:07:08;;;;;;;0.00;0.00;;;;;;;;;;5076207;28;20292;-78
2022/12/30 11:09:37;;;;;;;0.00;0.00;;;;;;;;;;5083348;28;20206;-78
2022/12/30 11:15:20;;;;;;;0.00;0.00;;;;;;;;;;5076232;28;20202;-79
2022/12/30 11:17:52;;;;;;;0.00;0.00;;;;;;;;;;5081627;28;20259;-77
2022/12/30 11:20:24;;;;;;;0.00;0.00;;;;;;;;;;5076283;28;20206;-78
2022/12/30 11:22:53;;;;;;;0.00;0.00;;;;;;;;;;5093257;28;20215;-79
2022/12/30 11:25:25;;;;;;;0.00;0.00;;;;;;;;;;5075983;28;20206;-79
2022/12/30 11:27:55;;;;;;;0.00;0.00;;;;;;;;;;5084715;28;20206;-78
2022/12/30 11:30:25;;;;;;;0.00;0.00;;;;;;;;;;5081370;28;20663;-77
2022/12/30 11:32:57;;;;;;;0.00;0.00;;;;;;;;;;5083696;28;20206;-77
2022/12/30 11:35:33;;;;;;;0.00;0.00;;;;;;;;;;5077002;28;20241;-78
2022/12/30 11:38:01;;;;;;;0.00;0.00;;;;;;;;;;5096626;28;20284;-78
2022/12/30 11:40:32;;;;;;;0.00;0.00;;;;;;;;;;5097546;28;20209;-77
2022/12/30 11:43:13;;;;;;;0.00;0.00;;;;;;;;;;5094582;28;20254;-77
2022/12/30 11:45:52;;;;;;;0.00;0.00;;;;;;;;;;5085774;28;20209;-77
2022/12/30 11:48:29;;;;;;;0.00;0.00;;;;;;;;;;5076970;28;20194;-78
2022/12/30 11:50:58;;;;;;;0.00;0.00;;;;;;;;;;5078019;28;20208;-77
2022/12/30 11:53:30;;;;;;;0.00;0.00;;;;;;;;;;5094785;28;20267;-77
2022/12/30 11:55:59;;;;;;;0.00;0.00;;;;;;;;;;5076920;28;20240;-78
2022/12/30 11:58:28;;;;;;;0.00;0.00;;;;;;;;;;5076324;28;20210;-77
2022/12/30 12:00:58;;;;;;;0.00;0.00;;;;;;;;;;5096075;28;20206;-78
2022/12/30 12:03:29;;;;;;;0.00;0.00;;;;;;;;;;5079816;28;20235;-78
2022/12/30 12:06:09;;;;;;;0.00;0.00;;;;;;;;;;5095199;28;20270;-77
2022/12/30 12:08:41;;;;;;;0.00;0.00;;;;;;;;;;5077213;28;20244;-77
2022/12/30 12:11:11;;;;;;;0.00;0.00;;;;;;;;;;5080984;28;20229;-77
2022/12/30 12:13:43;;;;;;;0.00;0.00;;;;;;;;;;5086134;28;20194;-78
2022/12/30 12:16:16;;;;;;;0.00;0.00;;;;;;;;;;5084717;28;20230;-78
2022/12/30 12:18:46;;;;;;;0.00;0.00;;;;;;;;;;5080842;28;20201;-78
2022/12/30 12:21:19;;;;;;;0.00;0.00;;;;;;;;;;5077795;28;20264;-77
2022/12/30 12:23:50;;;;;;;0.00;0.00;;;;;;;;;;5080882;28;20194;-77
2022/12/30 12:26:21;;;;;;;0.00;0.00;;;;;;;;;;5092490;28;20226;-77
2022/12/30 12:28:50;;;;;;;0.00;0.00;;;;;;;;;;5076241;28;20210;-77
2022/12/30 12:31:35;;;;;;;0.00;0.00;;;;;;;;;;5084936;28;20292;-77
2022/12/30 12:34:21;;;;;;;0.00;0.00;;;;;;;;;;5095616;28;20217;-77
2022/12/30 12:36:54;;;;;;;0.00;0.00;;;;;;;;;;5095024;28;20225;-77
2022/12/30 12:39:26;;;;;;;0.00;0.00;;;;;;;;;;5095775;28;20202;-77
2022/12/30 12:42:01;;;;;;;0.00;0.00;;;;;;;;;;5091192;28;20258;-77
2022/12/30 12:44:36;;;;;;;0.00;0.00;;;;;;;;;;5075302;28;20545;-77
2022/12/30 12:47:13;;;;;;;0.00;0.00;;;;;;;;;;5075750;28;20603;-77
2022/12/30 12:49:51;;;;;;;0.00;0.00;;;;;;;;;;5075047;28;20248;-77
2022/12/30 12:52:25;;;;;;;0.00;0.00;;;;;;;;;;5075260;28;20573;-77
2022/12/30 12:55:07;;;;;;;0.00;0.00;;;;;;;;;;5075724;28;20202;-77
2022/12/30 12:57:39;;;;;;;0.00;0.00;;;;;;;;;;5074133;28;20230;-77
2022/12/30 13:00:09;;;;;;;0.00;0.00;;;;;;;;;;5075016;28;20210;-77
2022/12/30 13:03:01;;;;;;;0.00;0.00;;;;;;;;;;5072869;28;20226;-78
2022/12/30 13:05:34;;;;;;;0.00;0.00;;;;;;;;;;5074484;28;20202;-77
2022/12/30 13:08:08;;;;;;;0.00;0.00;;;;;;;;;;5074567;28;20195;-77
2022/12/30 13:10:50;;;;;;;0.00;0.00;;;;;;;;;;5075084;28;20659;-77
2022/12/30 13:13:42;;;;;;;0.00;0.00;;;;;;;;;;5076399;28;20211;-77
2022/12/30 13:16:13;;;;;;;0.00;0.00;;;;;;;;;;5077317;28;20217;-75
2022/12/30 13:18:43;;;;;;;0.00;0.00;;;;;;;;;;5084940;28;20294;-77
2022/12/30 13:21:15;;;;;;;0.00;0.00;;;;;;;;;;5083873;28;20301;-77
2022/12/30 13:23:46;;;;;;;0.00;0.00;;;;;;;;;;5091071;28;20246;-77
2022/12/30 13:26:14;;;;;;;0.00;0.00;;;;;;;;;;5088930;28;20241;-77
2022/12/30 13:28:45;;;;;;;0.00;0.00;;;;;;;;;;5078814;28;20337;-78
2022/12/30 13:31:21;;;;;;;0.00;0.00;;;;;;;;;;5085973;28;20671;-77
2022/12/30 13:33:55;;;;;;;0.00;0.00;;;;;;;;;;5077617;28;20198;-77
2022/12/30 13:36:28;;;;;;;0.00;0.00;;;;;;;;;;5075204;28;20299;-78
2022/12/30 13:39:00;;;;;;;0.00;0.00;;;;;;;;;;5073886;28;20232;-77
2022/12/30 13:41:38;;;;;;;0.00;0.00;;;;;;;;;;5073923;28;20225;-77
2022/12/30 13:44:07;;;;;;;0.00;0.00;;;;;;;;;;5074160;28;20194;-77
2022/12/30 13:46:36;;;;;;;0.00;0.00;;;;;;;;;;5086403;28;20218;-78
2022/12/30 13:49:07;;;;;;;0.00;0.00;;;;;;;;;;5094707;28;20205;-77
2022/12/30 13:51:38;;;;;;;0.00;0.00;;;;;;;;;;5082283;28;20209;-78
2022/12/30 13:54:11;;;;;;;0.00;0.00;;;;;;;;;;5077221;28;20199;-77
2022/12/30 13:56:42;;;;;;;0.00;0.00;;;;;;;;;;5075203;28;20257;-77
2022/12/30 13:59:23;;;;;;;0.00;0.00;;;;;;;;;;5093659;28;20646;-77
2022/12/30 14:01:51;;;;;;;0.00;0.00;;;;;;;;;;5076303;28;20255;-76
2022/12/30 14:04:34;;;;;;;0.00;0.00;;;;;;;;;;5072296;28;20209;-78
2022/12/30 14:07:04;;;;;;;0.00;0.00;;;;;;;;;;5072282;28;20222;-77
2022/12/30 14:09:35;;;;;;;0.00;0.00;;;;;;;;;;5073878;28;20206;-77
2022/12/30 14:12:31;;;;;;;0.00;0.00;;;;;;;;;;5086234;28;20218;-77
2022/12/30 14:15:23;;;;;;;0.00;0.00;;;;;;;;;;5095637;28;20201;-77
2022/12/30 14:17:52;;;;;;;0.00;0.00;;;;;;;;;;5087061;28;20226;-78
2022/12/30 14:20:23;;;;;;;0.00;0.00;;;;;;;;;;5094762;28;20236;-77
2022/12/30 14:22:57;;;;;;;0.00;0.00;;;;;;;;;;5083005;28;20232;-77
2022/12/30 14:25:31;;;;;;;0.00;0.00;;;;;;;;;;5079689;28;20205;-77
2022/12/30 14:28:01;;;;;;;0.00;0.00;;;;;;;;;;5077885;28;20230;-77
2022/12/30 14:30:34;;;;;;;0.00;0.00;;;;;;;;;;5092477;28;20255;-77
2022/12/30 14:33:05;;;;;;;0.00;0.00;;;;;;;;;;5076081;28;20226;-77
2022/12/30 14:35:34;;;;;;;0.00;0.00;;;;;;;;;;5080395;28;20225;-77
2022/12/30 14:38:23;;;;;;;0.00;0.00;;;;;;;;;;5082932;28;20236;-77
2022/12/30 14:41:01;;;;;;;0.00;0.00;;;;;;;;;;5073978;28;20210;-77
2022/12/30 14:43:31;;;;;;;0.00;0.00;;;;;;;;;;5076360;28;20256;-77
2022/12/30 14:46:18;;;;;;;0.00;0.00;;;;;;;;;;5077406;28;20226;-77
2022/12/30 14:49:04;;;;;;;0.00;0.00;;;;;;;;;;5089558;28;20206;-76
2022/12/30 14:51:33;;;;;;;0.00;0.00;;;;;;;;;;5085292;28;20227;-77
2022/12/30 14:54:03;;;;;;;0.00;0.00;;;;;;;;;;5080042;28;20194;-77
2022/12/30 14:56:32;;;;;;;0.00;0.00;;;;;;;;;;5086522;28;20582;-77
2022/12/30 14:59:01;;;;;;;0.00;0.00;;;;;;;;;;5093336;28;20272;-77
2022/12/30 15:01:29;;;;;;;0.00;0.00;;;;;;;;;;5079463;28;20222;-77
2022/12/30 15:04:15;;;;;;;0.00;0.00;;;;;;;;;;5075261;28;20210;-77
2022/12/30 15:06:44;;;;;;;0.00;0.00;;;;;;;;;;5076506;28;20218;-77
2022/12/30 15:09:18;;;;;;;0.00;0.00;;;;;;;;;;5078343;28;20639;-77
2022/12/30 15:11:50;;;;;;;0.00;0.00;;;;;;;;;;5078580;28;20704;-77
2022/12/30 15:14:19;;;;;;;0.00;0.00;;;;;;;;;;5096938;28;20193;-77
2022/12/30 15:17:05;;;;;;;0.00;0.00;;;;;;;;;;5079066;28;20598;-77
2022/12/30 15:19:34;;;;;;;0.00;0.00;;;;;;;;;;5079110;28;20685;-77
2022/12/30 15:22:02;;;;;;;0.00;0.00;;;;;;;;;;5095605;28;20647;-76
2022/12/30 15:24:32;;;;;;;0.00;0.00;;;;;;;;;;5076424;28;20249;-76
2022/12/30 15:27:02;;;;;;;0.00;0.00;;;;;;;;;;5082908;28;20275;-77
2022/12/30 15:29:31;;;;;;;0.00;0.00;;;;;;;;;;5087714;28;20202;-78
2022/12/30 15:32:00;;;;;;;0.00;0.00;;;;;;;;;;5096409;28;20244;-76
2022/12/30 15:34:29;;;;;;;0.00;0.00;;;;;;;;;;5085506;28;20198;-77
2022/12/30 15:36:59;;;;;;;0.00;0.00;;;;;;;;;;5080337;28;20229;-77
2022/12/30 15:39:29;;;;;;;0.00;0.00;;;;;;;;;;5094526;28;20241;-77
2022/12/30 15:42:00;;;;;;;0.00;0.00;;;;;;;;;;5082189;28;20222;-77
2022/12/30 15:44:28;;;;;;;0.00;0.00;;;;;;;;;;5075743;28;20652;-77
2022/12/30 15:47:01;;;;;;;0.00;0.00;;;;;;;;;;5075921;28;20302;-77
2022/12/30 15:49:30;;;;;;;0.00;0.00;;;;;;;;;;5086419;28;20206;-77
2022/12/30 15:52:00;;;;;;;0.00;0.00;;;;;;;;;;5085476;28;20248;-77
2022/12/30 15:54:30;;;;;;;0.00;0.00;;;;;;;;;;5080373;28;20233;-78
2022/12/30 15:57:01;;;;;;;0.00;0.00;;;;;;;;;;5083212;28;20718;-77
2022/12/30 15:59:31;;;;;;;0.00;0.00;;;;;;;;;;5077718;28;20243;-77
2022/12/30 16:02:05;;;;;;;0.00;0.00;;;;;;;;;;5087649;28;20635;-77
2022/12/30 16:04:41;;;;;;;0.00;0.00;;;;;;;;;;5081764;28;20619;-79
2022/12/30 16:07:21;;;;;;;0.00;0.00;;;;;;;;;;5086323;28;20213;-78
2022/12/30 16:09:56;;;;;;;0.00;0.00;;;;;;;;;;5096348;28;20190;-78
2022/12/30 16:12:30;;;;;;;0.00;0.00;;;;;;;;;;5094999;28;20650;-78
2022/12/30 16:15:00;;;;;;;0.00;0.00;;;;;;;;;;5090270;28;20209;-78
2022/12/30 16:17:30;;;;;;;0.00;0.00;;;;;;;;;;5080499;28;20232;-78